Time;durP1;ratioP1;P1;durP2;ratioP2;P2;SDS_P1;SDS_P2;PMS_P1;PMS_P2;Temp;Humidity;BMP_temperature;BMP_pressure;BME280_temperature;BME280_humidity;BME280_pressure;Samples;Min_cycle;Max_cycle;Signal;HPM_P1;HPM_P2
2023/11/14 00:02:08;;;;;;;;;;;;;;;;;;5017980;28;5197;-56
2023/11/14 00:04:34;;;;;;;;;;;;;;;;;;5065403;28;4876;-55
2023/11/14 00:07:02;;;;;;;;;;;;;;;;;;5053583;28;5191;-56
2023/11/14 00:09:27;;;;;;;;;;;;;;;;;;5035707;28;5234;-57
2023/11/14 00:11:53;;;;;;;;;;;;;;;;;;5051979;28;2440;-56
2023/11/14 00:14:21;;;;;;;;;;;;;;;;;;5050566;28;4462;-56
2023/11/14 00:17:09;;;;;;;;;;;;;;;;;;5059482;28;4974;-56
2023/11/14 00:22:43;;;;;;;;;;;;;;;;;;5059345;28;4509;-56
2023/11/14 00:25:08;;;;;;;;;;;;;;;;;;5047259;28;4579;-56
2023/11/14 00:27:34;;;;;;;;;;;;;;;;;;5055373;28;4861;-56
2023/11/14 00:29:59;;;;;;;;;;;;;;;;;;5033202;28;4576;-55
2023/11/14 00:32:24;;;;;;;;;;;;;;;;;;5062725;28;5015;-55
2023/11/14 00:34:50;;;;;;;;;;;;;;;;;;5054259;28;4553;-56
2023/11/14 00:37:15;;;;;;;;;;;;;;;;;;5063165;28;4683;-56
2023/11/14 00:40:03;;;;;;;;;;;;;;;;;;5050633;28;5201;-55
2023/11/14 00:42:29;;;;;;;;;;;;;;;;;;5054382;28;5018;-57
2023/11/14 00:45:10;;;;;;;;;;;;;;;;;;5048512;28;1170;-57
2023/11/14 00:47:36;;;;;;;;;;;;;;;;;;5047880;28;5301;-55
2023/11/14 00:50:05;;;;;;;;;;;;;;;;;;5049127;28;4831;-57
2023/11/14 00:52:30;;;;;;;;;;;;;;;;;;5059101;28;4832;-55
2023/11/14 00:54:55;;;;;;;;;;;;;;;;;;5047012;28;5036;-57
2023/11/14 00:57:20;;;;;;;;;;;;;;;;;;5055342;28;4894;-55
2023/11/14 01:02:53;;;;;;;;;;;;;;;;;;5055408;28;4602;-56
2023/11/14 01:08:21;;;;;;;;;;;;;;;;;;5068980;28;5045;-57
2023/11/14 01:10:47;;;;;;;;;;;;;;;;;;5036438;28;5102;-55
2023/11/14 01:13:13;;;;;;;;;;;;;;;;;;5066548;28;4947;-56
2023/11/14 01:15:39;;;;;;;;;;;;;;;;;;5046309;28;4461;-55
2023/11/14 01:18:05;;;;;;;;;;;;;;;;;;5067023;28;4975;-54
2023/11/14 01:20:30;;;;;;;;;;;;;;;;;;5071263;28;1690;-55
2023/11/14 01:22:55;;;;;;;;;;;;;;;;;;5055707;28;4959;-59
2023/11/14 01:25:21;;;;;;;;;;;;;;;;;;5054511;28;4857;-56
2023/11/14 01:27:46;;;;;;;;;;;;;;;;;;5030425;28;5246;-55
2023/11/14 01:30:12;;;;;;;;;;;;;;;;;;5050432;28;4908;-54
2023/11/14 01:32:45;;;;;;;;;;;;;;;;;;5016353;28;1958;-55
2023/11/14 01:35:11;;;;;;;;;;;;;;;;;;5048251;28;4484;-59
2023/11/14 01:37:36;;;;;;;;;;;;;;;;;;5050150;28;5059;-57
2023/11/14 01:40:01;;;;;;;;;;;;;;;;;;5050804;28;5062;-55
2023/11/14 01:42:34;;;;;;;;;;;;;;;;;;5048061;28;4503;-56
2023/11/14 01:44:59;;;;;;;;;;;;;;;;;;5050793;28;1328;-56
2023/11/14 01:47:25;;;;;;;;;;;;;;;;;;5049100;28;4502;-55
2023/11/14 01:55:58;;;;;;;;;;;;;;;;;;5049530;28;5090;-55
2023/11/14 01:58:51;;;;;;;;;;;;;;;;;;5051965;28;5119;-55
2023/11/14 02:01:16;;;;;;;;;;;;;;;;;;5050911;28;4481;-58
2023/11/14 02:03:48;;;;;;;;;;;;;;;;;;5051653;28;4943;-56
2023/11/14 02:06:14;;;;;;;;;;;;;;;;;;5064080;28;5067;-56
2023/11/14 02:08:39;;;;;;;;;;;;;;;;;;5014162;28;1222;-58
2023/11/14 02:11:04;;;;;;;;;;;;;;;;;;5038784;28;5006;-55
2023/11/14 02:13:30;;;;;;;;;;;;;;;;;;5066809;28;4491;-56
2023/11/14 02:16:10;;;;;;;;;;;;;;;;;;5063546;28;4520;-58
2023/11/14 02:18:36;;;;;;;;;;;;;;;;;;5057604;28;4819;-55
2023/11/14 02:21:02;;;;;;;;;;;;;;;;;;5068472;28;4939;-58
2023/11/14 02:23:28;;;;;;;;;;;;;;;;;;5039990;28;1191;-57
2023/11/14 02:25:54;;;;;;;;;;;;;;;;;;5063228;28;5129;-56
2023/11/14 02:28:26;;;;;;;;;;;;;;;;;;5033396;28;5122;-56
2023/11/14 02:30:51;;;;;;;;;;;;;;;;;;5069929;28;4937;-57
2023/11/14 02:33:17;;;;;;;;;;;;;;;;;;5053864;28;4554;-56
2023/11/14 02:35:42;;;;;;;;;;;;;;;;;;5065795;28;1100;-57
2023/11/14 02:38:08;;;;;;;;;;;;;;;;;;5033721;28;5049;-56
2023/11/14 02:40:33;;;;;;;;;;;;;;;;;;5052635;28;4965;-56
2023/11/14 02:42:59;;;;;;;;;;;;;;;;;;5052595;28;5135;-56
2023/11/14 02:45:27;;;;;;;;;;;;;;;;;;5051343;28;5073;-56
2023/11/14 02:47:52;;;;;;;;;;;;;;;;;;5082947;28;1216;-56
2023/11/14 02:53:20;;;;;;;;;;;;;;;;;;5064323;28;5285;-56
2023/11/14 02:58:49;;;;;;;;;;;;;;;;;;5067861;28;4971;-56
2023/11/14 03:01:14;;;;;;;;;;;;;;;;;;5069779;28;4483;-56
2023/11/14 03:03:42;;;;;;;;;;;;;;;;;;5060614;28;5045;-56
2023/11/14 03:06:08;;;;;;;;;;;;;;;;;;5063614;28;4971;-57
2023/11/14 03:08:34;;;;;;;;;;;;;;;;;;5049949;28;1313;-56
2023/11/14 03:11:01;;;;;;;;;;;;;;;;;;5049573;28;4508;-56
2023/11/14 03:13:32;;;;;;;;;;;;;;;;;;5049848;28;4577;-56
2023/11/14 03:16:14;;;;;;;;;;;;;;;;;;5063258;28;5117;-56
2023/11/14 03:19:10;;;;;;;;;;;;;;;;;;5035887;28;4604;-56
2023/11/14 03:21:40;;;;;;;;;;;;;;;;;;5051595;28;4836;-56
2023/11/14 03:24:05;;;;;;;;;;;;;;;;;;5047644;28;4846;-55
2023/11/14 03:26:31;;;;;;;;;;;;;;;;;;5056948;28;1241;-56
2023/11/14 03:28:57;;;;;;;;;;;;;;;;;;5051315;28;4977;-55
2023/11/14 03:31:22;;;;;;;;;;;;;;;;;;5050535;28;5099;-55
2023/11/14 03:33:47;;;;;;;;;;;;;;;;;;5055593;28;4939;-56
2023/11/14 03:36:13;;;;;;;;;;;;;;;;;;5052423;28;5096;-55
2023/11/14 03:38:38;;;;;;;;;;;;;;;;;;5052671;28;1109;-55
2023/11/14 03:41:04;;;;;;;;;;;;;;;;;;5049418;28;4920;-56
2023/11/14 03:43:30;;;;;;;;;;;;;;;;;;5048499;28;4890;-56
2023/11/14 03:45:55;;;;;;;;;;;;;;;;;;5047968;28;5050;-54
2023/11/14 03:48:21;;;;;;;;;;;;;;;;;;5049010;28;5006;-56
2023/11/14 03:50:47;;;;;;;;;;;;;;;;;;5049255;28;1439;-59
2023/11/14 03:53:12;;;;;;;;;;;;;;;;;;5063866;28;4826;-56
2023/11/14 03:55:37;;;;;;;;;;;;;;;;;;5053908;28;4821;-56
2023/11/14 03:58:03;;;;;;;;;;;;;;;;;;5061731;28;5009;-55
2023/11/14 04:00:28;;;;;;;;;;;;;;;;;;5034280;28;4627;-56
2023/11/14 04:02:54;;;;;;;;;;;;;;;;;;5045970;28;1173;-55
2023/11/14 04:05:19;;;;;;;;;;;;;;;;;;5026280;28;5288;-56
2023/11/14 04:07:45;;;;;;;;;;;;;;;;;;5049322;28;5093;-56
2023/11/14 04:10:10;;;;;;;;;;;;;;;;;;5059267;28;4934;-57
2023/11/14 04:12:37;;;;;;;;;;;;;;;;;;5049690;28;5097;-56
2023/11/14 04:15:02;;;;;;;;;;;;;;;;;;5052533;28;4945;-56
2023/11/14 04:17:27;;;;;;;;;;;;;;;;;;5055444;28;1186;-55
2023/11/14 04:19:53;;;;;;;;;;;;;;;;;;5034176;28;4685;-54
2023/11/14 04:22:25;;;;;;;;;;;;;;;;;;5067021;28;4625;-57
2023/11/14 04:24:51;;;;;;;;;;;;;;;;;;5058383;28;4856;-56
2023/11/14 04:27:16;;;;;;;;;;;;;;;;;;5053433;28;4684;-56
2023/11/14 04:29:42;;;;;;;;;;;;;;;;;;5050313;28;4458;-56
2023/11/14 04:32:07;;;;;;;;;;;;;;;;;;5052355;28;4618;-57
2023/11/14 04:34:33;;;;;;;;;;;;;;;;;;5050776;28;5307;-58
2023/11/14 04:36:59;;;;;;;;;;;;;;;;;;5050338;28;4617;-54
2023/11/14 04:39:25;;;;;;;;;;;;;;;;;;5051824;28;5063;-55
2023/11/14 04:41:51;;;;;;;;;;;;;;;;;;5050036;28;1192;-55
2023/11/14 04:44:16;;;;;;;;;;;;;;;;;;5050729;28;5062;-56
2023/11/14 04:46:49;;;;;;;;;;;;;;;;;;5050706;28;4953;-57
2023/11/14 04:49:15;;;;;;;;;;;;;;;;;;5048257;28;4607;-56
2023/11/14 04:51:40;;;;;;;;;;;;;;;;;;5033561;28;4859;-57
2023/11/14 04:54:06;;;;;;;;;;;;;;;;;;5070730;28;4578;-56
2023/11/14 04:56:31;;;;;;;;;;;;;;;;;;5051514;28;1137;-54
2023/11/14 04:58:56;;;;;;;;;;;;;;;;;;5048302;28;5372;-56
2023/11/14 05:01:21;;;;;;;;;;;;;;;;;;5056453;28;4986;-54
2023/11/14 05:03:46;;;;;;;;;;;;;;;;;;5050058;28;5143;-55
2023/11/14 05:06:12;;;;;;;;;;;;;;;;;;5054705;28;4457;-55
2023/11/14 05:08:37;;;;;;;;;;;;;;;;;;5051526;28;1094;-55
2023/11/14 05:11:03;;;;;;;;;;;;;;;;;;5062405;28;4952;-54
2023/11/14 05:13:29;;;;;;;;;;;;;;;;;;5051781;28;4484;-56
2023/11/14 05:15:54;;;;;;;;;;;;;;;;;;5060028;28;5032;-56
2023/11/14 05:18:21;;;;;;;;;;;;;;;;;;5048295;28;5168;-55
2023/11/14 05:21:23;;;;;;;;;;;;;;;;;;5054952;28;1178;-55
2023/11/14 05:23:48;;;;;;;;;;;;;;;;;;5053599;28;5215;-56
2023/11/14 05:26:14;;;;;;;;;;;;;;;;;;5047853;28;4969;-55
2023/11/14 05:28:39;;;;;;;;;;;;;;;;;;5046890;28;4683;-56
2023/11/14 05:31:04;;;;;;;;;;;;;;;;;;5047273;28;4884;-58
2023/11/14 05:33:30;;;;;;;;;;;;;;;;;;5047423;28;4653;-56
2023/11/14 05:35:55;;;;;;;;;;;;;;;;;;5046447;28;1239;-55
2023/11/14 05:41:57;;;;;;;;;;;;;;;;;;5051534;28;4794;-56
2023/11/14 05:44:23;;;;;;;;;;;;;;;;;;5045967;28;5197;-50
2023/11/14 05:46:48;;;;;;;;;;;;;;;;;;5050717;28;5095;-50
2023/11/14 05:49:13;;;;;;;;;;;;;;;;;;5053751;28;4989;-49
2023/11/14 05:51:38;;;;;;;;;;;;;;;;;;5060447;28;4873;-50
2023/11/14 05:54:04;;;;;;;;;;;;;;;;;;5050528;28;5249;-51
2023/11/14 05:56:29;;;;;;;;;;;;;;;;;;5013667;28;1043;-50
2023/11/14 05:58:55;;;;;;;;;;;;;;;;;;5049159;28;5290;-49
2023/11/14 06:01:21;;;;;;;;;;;;;;;;;;5034103;28;5016;-48
2023/11/14 06:03:47;;;;;;;;;;;;;;;;;;5052908;28;4674;-49
2023/11/14 06:09:27;;;;;;;;;;;;;;;;;;5053939;28;5054;-50
2023/11/14 06:18:04;;;;;;;;;;;;;;;;;;5047829;28;4503;-52
2023/11/14 06:20:29;;;;;;;;;;;;;;;;;;5048528;28;4425;-54
2023/11/14 06:22:55;;;;;;;;;;;;;;;;;;5048730;28;5185;-51
2023/11/14 06:25:21;;;;;;;;;;;;;;;;;;5046423;28;4655;-50
2023/11/14 06:27:46;;;;;;;;;;;;;;;;;;5052520;28;5090;-49
2023/11/14 06:30:12;;;;;;;;;;;;;;;;;;5068654;28;5178;-49
2023/11/14 06:32:37;;;;;;;;;;;;;;;;;;5070670;28;1909;-49
2023/11/14 06:35:16;;;;;;;;;;;;;;;;;;5064657;28;5053;-49
2023/11/14 06:37:44;;;;;;;;;;;;;;;;;;5060784;28;5091;-49
2023/11/14 06:40:10;;;;;;;;;;;;;;;;;;5050834;28;5131;-52
2023/11/14 06:45:38;;;;;;;;;;;;;;;;;;5054336;28;5011;-49
2023/11/14 06:48:03;;;;;;;;;;;;;;;;;;5053970;28;4644;-51
2023/11/14 06:50:28;;;;;;;;;;;;;;;;;;5074614;28;1033;-53
2023/11/14 06:52:54;;;;;;;;;;;;;;;;;;5056025;28;4517;-51
2023/11/14 06:58:22;;;;;;;;;;;;;;;;;;5065836;28;4439;-52
2023/11/14 07:00:47;;;;;;;;;;;;;;;;;;5053795;28;4994;-53
2023/11/14 07:03:12;;;;;;;;;;;;;;;;;;5054054;28;4995;-51
2023/11/14 07:05:38;;;;;;;;;;;;;;;;;;5048885;28;2452;-53
2023/11/14 07:08:03;;;;;;;;;;;;;;;;;;5045074;28;4526;-53
2023/11/14 07:10:32;;;;;;;;;;;;;;;;;;5047866;28;4878;-51
2023/11/14 07:12:58;;;;;;;;;;;;;;;;;;5059094;28;5027;-49
2023/11/14 07:15:23;;;;;;;;;;;;;;;;;;5056514;28;5313;-50
2023/11/14 07:17:49;;;;;;;;;;;;;;;;;;5048804;28;1096;-53
2023/11/14 07:20:20;;;;;;;;;;;;;;;;;;5038249;28;4700;-53
2023/11/14 07:22:45;;;;;;;;;;;;;;;;;;5062395;28;4496;-53
2023/11/14 07:25:11;;;;;;;;;;;;;;;;;;5051444;28;4814;-54
2023/11/14 07:27:40;;;;;;;;;;;;;;;;;;5051429;28;5264;-50
2023/11/14 07:30:07;;;;;;;;;;;;;;;;;;5050135;28;5172;-55
2023/11/14 07:32:33;;;;;;;;;;;;;;;;;;5049563;28;1906;-55
2023/11/14 07:34:58;;;;;;;;;;;;;;;;;;5053599;28;5056;-53
2023/11/14 07:37:23;;;;;;;;;;;;;;;;;;5057485;28;5047;-51
2023/11/14 07:39:59;;;;;;;;;;;;;;;;;;5056671;28;4853;-52
2023/11/14 07:42:24;;;;;;;;;;;;;;;;;;5049586;28;4603;-54
2023/11/14 07:47:52;;;;;;;;;;;;;;;;;;5046458;28;4705;-55
2023/11/14 07:53:35;;;;;;;;;;;;;;;;;;5062849;28;1986;-53
2023/11/14 07:56:01;;;;;;;;;;;;;;;;;;5073196;28;5019;-52
2023/11/14 07:58:26;;;;;;;;;;;;;;;;;;5061092;28;4935;-55
2023/11/14 08:00:52;;;;;;;;;;;;;;;;;;5033407;28;4929;-51
2023/11/14 08:03:18;;;;;;;;;;;;;;;;;;5053919;28;4473;-55
2023/11/14 08:05:43;;;;;;;;;;;;;;;;;;5052388;28;1171;-53
2023/11/14 08:08:09;;;;;;;;;;;;;;;;;;5058399;28;4451;-51
2023/11/14 08:10:43;;;;;;;;;;;;;;;;;;5071948;28;5053;-52
2023/11/14 08:13:08;;;;;;;;;;;;;;;;;;5057244;28;4628;-55
2023/11/14 08:15:34;;;;;;;;;;;;;;;;;;5054022;28;5039;-52
2023/11/14 08:17:59;;;;;;;;;;;;;;;;;;5049373;28;1092;-56
2023/11/14 08:20:28;;;;;;;;;;;;;;;;;;5071259;28;4934;-55
2023/11/14 08:22:57;;;;;;;;;;;;;;;;;;5055460;28;4616;-51
2023/11/14 08:25:22;;;;;;;;;;;;;;;;;;5063851;28;4490;-52
2023/11/14 08:27:48;;;;;;;;;;;;;;;;;;5066142;28;4610;-52
2023/11/14 08:30:14;;;;;;;;;;;;;;;;;;5064664;28;4774;-51
2023/11/14 08:32:42;;;;;;;;;;;;;;;;;;5032774;28;1967;-52
2023/11/14 08:35:09;;;;;;;;;;;;;;;;;;5055563;28;4698;-52
2023/11/14 08:37:34;;;;;;;;;;;;;;;;;;5057627;28;4717;-49
2023/11/14 08:40:36;;;;;;;;;;;;;;;;;;5074116;28;4529;-54
2023/11/14 08:43:01;;;;;;;;;;;;;;;;;;5052025;28;4828;-56
2023/11/14 08:45:29;;;;;;;;;;;;;;;;;;5056165;28;4489;-52
2023/11/14 08:47:54;;;;;;;;;;;;;;;;;;5057619;28;1212;-55
2023/11/14 08:50:20;;;;;;;;;;;;;;;;;;5054362;28;4554;-53
2023/11/14 08:52:45;;;;;;;;;;;;;;;;;;5046804;28;4631;-56
2023/11/14 08:55:10;;;;;;;;;;;;;;;;;;5051567;28;5047;-52
2023/11/14 08:57:36;;;;;;;;;;;;;;;;;;5054705;28;5018;-55
2023/11/14 09:03:16;;;;;;;;;;;;;;;;;;5051644;28;4658;-53
2023/11/14 09:05:41;;;;;;;;;;;;;;;;;;5053662;28;1233;-51
2023/11/14 09:08:06;;;;;;;;;;;;;;;;;;5036352;28;4560;-55
2023/11/14 09:10:32;;;;;;;;;;;;;;;;;;5043960;28;4685;-54
2023/11/14 09:12:57;;;;;;;;;;;;;;;;;;5049399;28;5045;-55
2023/11/14 09:15:23;;;;;;;;;;;;;;;;;;5032864;28;5267;-53
2023/11/14 09:17:48;;;;;;;;;;;;;;;;;;5056376;28;979;-54
2023/11/14 09:20:14;;;;;;;;;;;;;;;;;;5067254;28;4384;-53
2023/11/14 09:22:39;;;;;;;;;;;;;;;;;;5073095;28;4646;-50
2023/11/14 09:25:06;;;;;;;;;;;;;;;;;;5072480;28;4865;-55
2023/11/14 09:27:31;;;;;;;;;;;;;;;;;;5066191;28;5106;-49
2023/11/14 09:33:05;;;;;;;;;;;;;;;;;;5076299;28;5191;-53
2023/11/14 09:35:31;;;;;;;;;;;;;;;;;;5048950;28;1477;-52
2023/11/14 09:37:56;;;;;;;;;;;;;;;;;;5033574;28;4631;-52
2023/11/14 09:40:22;;;;;;;;;;;;;;;;;;5030866;28;4904;-49
2023/11/14 09:42:48;;;;;;;;;;;;;;;;;;5041112;28;5095;-50
2023/11/14 09:45:14;;;;;;;;;;;;;;;;;;5016296;28;4942;-53
2023/11/14 09:47:39;;;;;;;;;;;;;;;;;;5032486;28;1041;-52
2023/11/14 09:50:05;;;;;;;;;;;;;;;;;;5042630;28;4630;-48
2023/11/14 09:52:30;;;;;;;;;;;;;;;;;;5033432;28;4981;-53
2023/11/14 09:54:55;;;;;;;;;;;;;;;;;;5020428;28;5098;-49
2023/11/14 09:57:20;;;;;;;;;;;;;;;;;;5013152;28;5056;-50
2023/11/14 09:59:46;;;;;;;;;;;;;;;;;;5029952;28;1101;-51
2023/11/14 10:02:11;;;;;;;;;;;;;;;;;;5037152;28;4606;-49
2023/11/14 10:04:42;;;;;;;;;;;;;;;;;;5030111;28;4633;-49
2023/11/14 10:07:09;;;;;;;;;;;;;;;;;;5031084;28;5344;-50
2023/11/14 10:09:35;;;;;;;;;;;;;;;;;;5029741;28;4488;-50
2023/11/14 10:12:02;;;;;;;;;;;;;;;;;;5033817;28;1164;-49
2023/11/14 10:14:28;;;;;;;;;;;;;;;;;;5031420;28;5180;-51
2023/11/14 10:17:05;;;;;;;;;;;;;;;;;;5045701;28;4423;-51
2023/11/14 10:19:30;;;;;;;;;;;;;;;;;;5039560;28;5240;-51
2023/11/14 10:21:55;;;;;;;;;;;;;;;;;;5028183;28;4651;-49
2023/11/14 10:24:21;;;;;;;;;;;;;;;;;;5010035;28;5122;-49
2023/11/14 10:26:50;;;;;;;;;;;;;;;;;;5014271;28;951;-49
2023/11/14 10:29:16;;;;;;;;;;;;;;;;;;5046245;28;4973;-51
2023/11/14 10:31:42;;;;;;;;;;;;;;;;;;5070539;28;4971;-51
2023/11/14 10:34:08;;;;;;;;;;;;;;;;;;5067140;28;4502;-52
2023/11/14 10:36:44;;;;;;;;;;;;;;;;;;5016331;28;4518;-50
2023/11/14 10:39:10;;;;;;;;;;;;;;;;;;5049683;28;5447;-52
2023/11/14 10:41:36;;;;;;;;;;;;;;;;;;5056376;28;1326;-52
2023/11/14 10:44:05;;;;;;;;;;;;;;;;;;5044243;28;5267;-52
2023/11/14 10:46:32;;;;;;;;;;;;;;;;;;5055261;28;4488;-52
2023/11/14 10:49:30;;;;;;;;;;;;;;;;;;5048789;28;5180;-49
2023/11/14 10:51:59;;;;;;;;;;;;;;;;;;5056654;28;4587;-53
2023/11/14 10:54:24;;;;;;;;;;;;;;;;;;5042161;28;4510;-52
2023/11/14 10:56:50;;;;;;;;;;;;;;;;;;5033494;28;1061;-51
2023/11/14 10:59:15;;;;;;;;;;;;;;;;;;5047473;28;5236;-51
2023/11/14 11:01:47;;;;;;;;;;;;;;;;;;5049720;28;4434;-50
2023/11/14 11:04:16;;;;;;;;;;;;;;;;;;5056426;28;5172;-50
2023/11/14 11:09:59;;;;;;;;;;;;;;;;;;5052705;28;5090;-50
2023/11/14 11:12:39;;;;;;;;;;;;;;;;;;5053747;28;4928;-51
2023/11/14 11:15:05;;;;;;;;;;;;;;;;;;5054532;28;4646;-52
2023/11/14 11:17:44;;;;;;;;;;;;;;;;;;5068297;28;1385;-53
2023/11/14 11:20:10;;;;;;;;;;;;;;;;;;5067687;28;5158;-52
2023/11/14 11:22:55;;;;;;;;;;;;;;;;;;5035853;28;4600;-51
2023/11/14 11:25:29;;;;;;;;;;;;;;;;;;5050610;28;5222;-53
2023/11/14 11:27:55;;;;;;;;;;;;;;;;;;5050070;28;5038;-50
2023/11/14 11:30:20;;;;;;;;;;;;;;;;;;5044179;28;4912;-53
2023/11/14 11:32:48;;;;;;;;;;;;;;;;;;5058960;28;1967;-52
2023/11/14 11:35:16;;;;;;;;;;;;;;;;;;5066936;28;4654;-51
2023/11/14 11:40:59;;;;;;;;;;;;;;;;;;5051528;28;4594;-52
2023/11/14 11:43:25;;;;;;;;;;;;;;;;;;5049797;28;4449;-52
2023/11/14 11:45:50;;;;;;;;;;;;;;;;;;5062453;28;6153;-50
2023/11/14 11:51:23;;;;;;;;;;;;;;;;;;5065893;28;4490;-49
2023/11/14 11:53:53;;;;;;;;;;;;;;;;;;5053717;28;1915;-52
2023/11/14 11:56:36;;;;;;;;;;;;;;;;;;5048903;28;4537;-49
2023/11/14 12:02:14;;;;;;;;;;;;;;;;;;5055150;28;4422;-51
2023/11/14 12:04:39;;;;;;;;;;;;;;;;;;5050598;28;4954;-51
2023/11/14 12:07:05;;;;;;;;;;;;;;;;;;5048989;28;4528;-50
2023/11/14 12:09:33;;;;;;;;;;;;;;;;;;5039237;28;5153;-48
2023/11/14 12:12:00;;;;;;;;;;;;;;;;;;5067550;28;1183;-48
2023/11/14 12:14:28;;;;;;;;;;;;;;;;;;5057845;28;4396;-50
2023/11/14 12:16:53;;;;;;;;;;;;;;;;;;5070307;28;5060;-50
2023/11/14 12:19:18;;;;;;;;;;;;;;;;;;5056562;28;4683;-52
2023/11/14 12:21:44;;;;;;;;;;;;;;;;;;5056630;28;4477;-53
2023/11/14 12:24:16;;;;;;;;;;;;;;;;;;5057887;28;4962;-51
2023/11/14 12:26:42;;;;;;;;;;;;;;;;;;5061756;28;1117;-49
2023/11/14 12:29:13;;;;;;;;;;;;;;;;;;5042172;28;4624;-53
2023/11/14 12:31:38;;;;;;;;;;;;;;;;;;5047118;28;4665;-51
2023/11/14 12:34:08;;;;;;;;;;;;;;;;;;5055665;28;5088;-50
2023/11/14 12:36:34;;;;;;;;;;;;;;;;;;5049008;28;4976;-54
2023/11/14 12:39:11;;;;;;;;;;;;;;;;;;5059748;28;989;-53
2023/11/14 12:41:37;;;;;;;;;;;;;;;;;;5060453;28;4550;-51
2023/11/14 12:44:07;;;;;;;;;;;;;;;;;;5029542;28;4940;-51
2023/11/14 12:46:38;;;;;;;;;;;;;;;;;;5061552;28;4623;-51
2023/11/14 12:49:08;;;;;;;;;;;;;;;;;;5064554;28;4474;-54
2023/11/14 12:51:34;;;;;;;;;;;;;;;;;;5070824;28;4539;-54
2023/11/14 12:54:00;;;;;;;;;;;;;;;;;;5070198;28;1927;-51
2023/11/14 12:56:25;;;;;;;;;;;;;;;;;;5056114;28;4562;-54
2023/11/14 12:58:51;;;;;;;;;;;;;;;;;;5056819;28;4405;-55
2023/11/14 13:01:16;;;;;;;;;;;;;;;;;;5056296;28;4940;-52
2023/11/14 13:03:41;;;;;;;;;;;;;;;;;;5062175;28;5164;-52
2023/11/14 13:06:06;;;;;;;;;;;;;;;;;;5073376;28;4806;-51
2023/11/14 13:08:32;;;;;;;;;;;;;;;;;;5061689;28;1245;-53
2023/11/14 13:10:57;;;;;;;;;;;;;;;;;;5050575;28;4478;-53
2023/11/14 13:13:22;;;;;;;;;;;;;;;;;;5059326;28;4993;-52
2023/11/14 13:15:48;;;;;;;;;;;;;;;;;;5066089;28;4625;-52
2023/11/14 13:18:30;;;;;;;;;;;;;;;;;;5066941;28;5085;-49
2023/11/14 13:20:55;;;;;;;;;;;;;;;;;;5043615;28;1541;-54
2023/11/14 13:23:32;;;;;;;;;;;;;;;;;;5067850;28;4400;-54
2023/11/14 13:29:00;;;;;;;;;;;;;;;;;;5065040;28;5131;-49
2023/11/14 13:37:31;;;;;;;;;;;;;;;;;;5056144;28;4507;-49
2023/11/14 13:39:56;;;;;;;;;;;;;;;;;;5037516;28;5049;-50
2023/11/14 13:42:21;;;;;;;;;;;;;;;;;;5055388;28;4428;-48
2023/11/14 13:44:47;;;;;;;;;;;;;;;;;;5054679;28;1211;-48
2023/11/14 13:47:12;;;;;;;;;;;;;;;;;;5051984;28;5167;-51
2023/11/14 13:49:39;;;;;;;;;;;;;;;;;;5075061;28;4697;-52
2023/11/14 13:52:04;;;;;;;;;;;;;;;;;;5053979;28;5135;-51
2023/11/14 13:54:29;;;;;;;;;;;;;;;;;;5067835;28;5218;-49
2023/11/14 13:56:59;;;;;;;;;;;;;;;;;;5059405;28;1001;-49
2023/11/14 13:59:27;;;;;;;;;;;;;;;;;;5053616;28;4957;-48
2023/11/14 14:01:52;;;;;;;;;;;;;;;;;;5065894;28;4428;-49
2023/11/14 14:04:18;;;;;;;;;;;;;;;;;;5061336;28;4978;-48
2023/11/14 14:06:43;;;;;;;;;;;;;;;;;;5048452;28;5270;-48
2023/11/14 14:09:13;;;;;;;;;;;;;;;;;;5053752;28;4864;-49
2023/11/14 14:11:38;;;;;;;;;;;;;;;;;;5055898;28;1062;-50
2023/11/14 14:14:03;;;;;;;;;;;;;;;;;;5053572;28;4963;-49
2023/11/14 14:16:29;;;;;;;;;;;;;;;;;;5052255;28;5033;-51
2023/11/14 14:21:57;;;;;;;;;;;;;;;;;;5052273;28;5204;-49
2023/11/14 14:24:23;;;;;;;;;;;;;;;;;;5061034;28;5074;-48
2023/11/14 14:26:48;;;;;;;;;;;;;;;;;;5050933;28;1210;-51
2023/11/14 14:29:13;;;;;;;;;;;;;;;;;;5053993;28;5035;-51
2023/11/14 14:40:44;;;;;;;;;;;;;;;;;;5071916;28;4678;-49
2023/11/14 14:43:09;;;;;;;;;;;;;;;;;;5071602;28;4505;-52
2023/11/14 14:45:34;;;;;;;;;;;;;;;;;;5051293;28;5130;-52
2023/11/14 14:48:00;;;;;;;;;;;;;;;;;;5069656;28;1205;-50
2023/11/14 14:50:25;;;;;;;;;;;;;;;;;;5060355;28;4436;-49
2023/11/14 14:52:51;;;;;;;;;;;;;;;;;;5063131;28;5192;-49
2023/11/14 14:55:17;;;;;;;;;;;;;;;;;;5050390;28;5066;-49
2023/11/14 14:57:42;;;;;;;;;;;;;;;;;;5057506;28;4940;-51
2023/11/14 15:00:18;;;;;;;;;;;;;;;;;;5050182;28;4640;-50
2023/11/14 15:02:43;;;;;;;;;;;;;;;;;;5059715;28;1230;-52
2023/11/14 15:05:10;;;;;;;;;;;;;;;;;;5063966;28;4996;-48
2023/11/14 15:07:35;;;;;;;;;;;;;;;;;;5046891;28;5145;-50
2023/11/14 15:10:38;;;;;;;;;;;;;;;;;;5062661;28;5053;-51
2023/11/14 15:13:09;;;;;;;;;;;;;;;;;;5051385;28;5172;-51
2023/11/14 15:15:37;;;;;;;;;;;;;;;;;;5051819;28;5197;-53
2023/11/14 15:18:04;;;;;;;;;;;;;;;;;;5054453;28;4931;-50
2023/11/14 15:23:32;;;;;;;;;;;;;;;;;;5054739;28;4747;-49
2023/11/14 15:25:57;;;;;;;;;;;;;;;;;;5053897;28;4946;-52
2023/11/14 15:28:24;;;;;;;;;;;;;;;;;;5058799;28;4960;-51
2023/11/14 15:30:49;;;;;;;;;;;;;;;;;;5073134;28;5076;-51
2023/11/14 15:36:18;;;;;;;;;;;;;;;;;;5073832;28;4525;-51
2023/11/14 15:38:44;;;;;;;;;;;;;;;;;;5074085;28;1163;-53
2023/11/14 15:41:09;;;;;;;;;;;;;;;;;;5073560;28;4621;-50
2023/11/14 15:43:34;;;;;;;;;;;;;;;;;;5073049;28;5450;-53
2023/11/14 15:52:11;;;;;;;;;;;;;;;;;;5073682;28;4528;-49
2023/11/14 15:57:39;;;;;;;;;;;;;;;;;;5061656;28;4958;-49
2023/11/14 16:00:05;;;;;;;;;;;;;;;;;;5040563;28;4485;-49
2023/11/14 16:02:30;;;;;;;;;;;;;;;;;;5063920;28;1292;-51
2023/11/14 16:04:55;;;;;;;;;;;;;;;;;;5053757;28;4488;-49
2023/11/14 16:07:49;;;;;;;;;;;;;;;;;;5068243;28;4637;-51
2023/11/14 16:13:17;;;;;;;;;;;;;;;;;;5056947;28;4992;-49
2023/11/14 16:15:42;;;;;;;;;;;;;;;;;;5051361;28;5077;-49
2023/11/14 16:18:08;;;;;;;;;;;;;;;;;;5072952;28;4477;-50
2023/11/14 16:23:55;;;;;;;;;;;;;;;;;;5056118;28;4750;-49
2023/11/14 16:29:18;;;;;;;;;;;;;;;;;;5051293;28;4905;-51
2023/11/14 16:31:43;;;;;;;;;;;;;;;;;;5051909;28;5111;-51
2023/11/14 16:34:10;;;;;;;;;;;;;;;;;;5032470;28;5102;-50
2023/11/14 16:36:35;;;;;;;;;;;;;;;;;;5017551;28;5250;-48
2023/11/14 16:39:00;;;;;;;;;;;;;;;;;;5036013;28;1116;-50
2023/11/14 16:41:26;;;;;;;;;;;;;;;;;;5041769;28;4596;-49
2023/11/14 16:43:53;;;;;;;;;;;;;;;;;;5032149;28;5025;-49
2023/11/14 16:46:19;;;;;;;;;;;;;;;;;;5037922;28;5089;-51
2023/11/14 16:48:44;;;;;;;;;;;;;;;;;;5035126;28;5116;-48
2023/11/14 16:51:09;;;;;;;;;;;;;;;;;;5049388;28;5090;-48
2023/11/14 16:53:36;;;;;;;;;;;;;;;;;;5020034;28;1945;-50
2023/11/14 16:56:01;;;;;;;;;;;;;;;;;;5040266;28;4933;-51
2023/11/14 16:58:26;;;;;;;;;;;;;;;;;;5034258;28;4485;-49
2023/11/14 17:00:53;;;;;;;;;;;;;;;;;;5054195;28;5261;-48
2023/11/14 17:03:19;;;;;;;;;;;;;;;;;;5042245;28;4660;-52
2023/11/14 17:05:44;;;;;;;;;;;;;;;;;;5033287;28;2610;-50
2023/11/14 17:08:09;;;;;;;;;;;;;;;;;;5051799;28;4631;-50
2023/11/14 17:10:35;;;;;;;;;;;;;;;;;;5037746;28;4612;-50
2023/11/14 17:13:00;;;;;;;;;;;;;;;;;;5041177;28;5095;-49
2023/11/14 17:15:26;;;;;;;;;;;;;;;;;;5044200;28;4511;-52
2023/11/14 17:17:52;;;;;;;;;;;;;;;;;;5040890;28;2892;-48
2023/11/14 17:20:17;;;;;;;;;;;;;;;;;;5017063;28;5034;-50
2023/11/14 17:22:43;;;;;;;;;;;;;;;;;;5049974;28;4939;-50
2023/11/14 17:25:11;;;;;;;;;;;;;;;;;;5031562;28;4636;-48
2023/11/14 17:27:37;;;;;;;;;;;;;;;;;;5039120;28;4604;-52
2023/11/14 17:30:02;;;;;;;;;;;;;;;;;;5037490;28;5133;-52
2023/11/14 17:32:29;;;;;;;;;;;;;;;;;;5044992;28;3251;-51
2023/11/14 17:34:54;;;;;;;;;;;;;;;;;;5047782;28;5313;-50
2023/11/14 17:37:20;;;;;;;;;;;;;;;;;;5047337;28;5188;-51
2023/11/14 17:39:45;;;;;;;;;;;;;;;;;;5049848;28;4509;-51
2023/11/14 17:42:10;;;;;;;;;;;;;;;;;;5048812;28;4527;-52
2023/11/14 17:44:36;;;;;;;;;;;;;;;;;;5051262;28;3299;-49
2023/11/14 17:47:04;;;;;;;;;;;;;;;;;;5048861;28;5073;-51
2023/11/14 17:49:30;;;;;;;;;;;;;;;;;;5046447;28;5124;-51
2023/11/14 17:51:57;;;;;;;;;;;;;;;;;;5057162;28;4653;-50
2023/11/14 17:54:22;;;;;;;;;;;;;;;;;;5050049;28;5051;-51
2023/11/14 17:57:24;;;;;;;;;;;;;;;;;;5053125;28;2758;-49
2023/11/14 17:59:49;;;;;;;;;;;;;;;;;;5065711;28;5155;-51
2023/11/14 18:02:16;;;;;;;;;;;;;;;;;;5052587;28;4885;-51
2023/11/14 18:04:41;;;;;;;;;;;;;;;;;;5051181;28;5089;-52
2023/11/14 18:07:06;;;;;;;;;;;;;;;;;;5048813;28;4482;-49
2023/11/14 18:09:32;;;;;;;;;;;;;;;;;;5056943;28;4503;-51
2023/11/14 18:11:59;;;;;;;;;;;;;;;;;;5049620;28;3144;-50
2023/11/14 18:14:40;;;;;;;;;;;;;;;;;;5026875;28;5084;-52
2023/11/14 18:17:06;;;;;;;;;;;;;;;;;;5037137;28;4550;-51
2023/11/14 18:19:38;;;;;;;;;;;;;;;;;;5075181;28;5058;-53
2023/11/14 18:22:03;;;;;;;;;;;;;;;;;;5045641;28;5060;-49
2023/11/14 18:24:29;;;;;;;;;;;;;;;;;;5059311;28;5619;-51
2023/11/14 18:26:54;;;;;;;;;;;;;;;;;;5073359;28;1056;-50
2023/11/14 18:29:20;;;;;;;;;;;;;;;;;;5066233;28;4920;-50
2023/11/14 18:31:47;;;;;;;;;;;;;;;;;;5058759;28;4739;-52
2023/11/14 18:34:13;;;;;;;;;;;;;;;;;;5060022;28;4660;-49
2023/11/14 18:36:38;;;;;;;;;;;;;;;;;;5035730;28;4559;-52
2023/11/14 18:39:05;;;;;;;;;;;;;;;;;;5068611;28;4618;-48
2023/11/14 18:41:30;;;;;;;;;;;;;;;;;;5053866;28;1143;-50
2023/11/14 18:43:56;;;;;;;;;;;;;;;;;;5058462;28;5526;-53
2023/11/14 18:46:21;;;;;;;;;;;;;;;;;;5066143;28;5036;-52
2023/11/14 18:48:47;;;;;;;;;;;;;;;;;;5040831;28;5172;-49
2023/11/14 18:51:32;;;;;;;;;;;;;;;;;;5050813;28;4560;-48
2023/11/14 18:53:58;;;;;;;;;;;;;;;;;;5056258;28;2905;-52
2023/11/14 18:56:28;;;;;;;;;;;;;;;;;;5047290;28;5074;-52